Time;durP1;ratioP1;P1;durP2;ratioP2;P2;SDS_P1;SDS_P2;PMS_P1;PMS_P2;Temp;Humidity;BMP_temperature;BMP_pressure;BME280_temperature;BME280_humidity;BME280_pressure;Samples;Min_cycle;Max_cycle;Signal;HPM_P1;HPM_P2
2023/12/27 00:00:54;;;;;;;;;1.00;1.00;;;;;6.81;87.44;100415.16;5091767;28;8830;-57
2023/12/27 00:03:21;;;;;;;;;2.00;1.00;;;;;6.78;87.45;100416.19;5099432;28;8826;-57
2023/12/27 00:05:50;;;;;;;;;1.00;1.00;;;;;6.73;87.43;100423.50;5088423;28;8814;-59
2023/12/27 00:08:17;;;;;;;;;1.00;1.00;;;;;6.68;87.21;100424.72;5103286;28;8963;-57
2023/12/27 00:10:45;;;;;;;;;0.25;0.00;;;;;6.63;87.54;100422.34;5116394;28;8816;-57
2023/12/27 00:13:13;;;;;;;;;1.00;1.00;;;;;6.61;87.40;100418.06;5116244;28;8834;-57
2023/12/27 00:15:45;;;;;;;;;1.00;1.00;;;;;6.58;87.72;100427.03;5116637;28;8836;-57
2023/12/27 00:18:16;;;;;;;;;0.00;0.00;;;;;6.53;87.46;100423.75;5116553;28;8840;-57
2023/12/27 00:20:44;;;;;;;;;3.00;2.50;;;;;6.50;87.53;100423.09;5107301;28;8818;-59
2023/12/27 00:23:12;;;;;;;;;4.00;2.00;;;;;6.46;87.80;100425.03;5080001;28;8986;-58
2023/12/27 00:25:39;;;;;;;;;6.00;5.00;;;;;6.43;88.00;100424.34;5075641;28;8874;-57
2023/12/27 00:28:07;;;;;;;;;1.00;1.00;;;;;6.39;88.02;100420.19;5075615;28;8850;-56
2023/12/27 00:30:35;;;;;;;;;1.50;1.50;;;;;6.34;87.52;100415.16;5075512;28;8959;-57
2023/12/27 00:33:03;;;;;;;;;3.00;1.00;;;;;6.31;87.93;100419.75;5075350;28;8831;-57
2023/12/27 00:35:31;;;;;;;;;1.50;1.50;;;;;6.27;87.97;100418.19;5075626;28;8862;-56
2023/12/27 00:37:59;;;;;;;;;1.00;1.00;;;;;6.24;88.24;100416.59;5075582;28;8959;-57
2023/12/27 00:40:27;;;;;;;;;1.50;1.50;;;;;6.21;87.94;100426.50;5076084;28;8837;-57
2023/12/27 00:42:54;;;;;;;;;4.00;4.00;;;;;6.17;88.33;100433.75;5075700;28;8867;-57
2023/12/27 00:45:22;;;;;;;;;1.00;1.00;;;;;6.16;88.24;100431.16;5075168;28;8840;-57
2023/12/27 00:47:50;;;;;;;;;5.00;5.00;;;;;6.12;87.87;100422.53;5075570;28;8824;-57
2023/12/27 00:50:18;;;;;;;;;3.00;3.00;;;;;6.13;88.24;100416.31;5074954;28;8939;-56
2023/12/27 00:52:47;;;;;;;;;1.00;1.00;;;;;6.15;88.34;100416.25;5075265;28;9495;-57
2023/12/27 00:55:15;;;;;;;;;0.75;0.75;;;;;6.15;88.42;100417.06;5076381;28;8832;-57
2023/12/27 00:57:43;;;;;;;;;0.25;0.25;;;;;6.15;88.78;100408.31;5098972;28;8822;-58
2023/12/27 01:00:10;;;;;;;;;2.00;2.00;;;;;6.15;88.22;100400.38;5099909;28;9519;-58
2023/12/27 01:02:38;;;;;;;;;2.00;1.00;;;;;6.15;88.45;100403.03;5098739;28;8822;-57
2023/12/27 01:05:07;;;;;;;;;3.25;2.50;;;;;6.15;88.18;100408.31;5099495;28;8838;-58
2023/12/27 01:07:35;;;;;;;;;3.00;3.00;;;;;6.15;88.45;100403.03;5098369;28;8814;-57
2023/12/27 01:10:03;;;;;;;;;1.50;1.50;;;;;6.14;88.31;100417.19;5099008;28;8807;-57
2023/12/27 01:12:31;;;;;;;;;3.00;3.00;;;;;6.13;88.40;100410.16;5100307;28;8936;-57
2023/12/27 01:14:59;;;;;;;;;1.00;1.00;;;;;6.12;88.72;100406.69;5079208;28;9516;-56
2023/12/27 01:17:26;;;;;;;;;3.00;3.00;;;;;6.08;88.36;100407.78;5097945;28;8824;-58
2023/12/27 01:19:54;;;;;;;;;3.00;1.00;;;;;6.02;88.44;100407.25;5119905;28;8945;-58
2023/12/27 01:22:22;;;;;;;;;2.00;1.00;;;;;5.93;87.87;100402.47;5119595;28;8873;-58
2023/12/27 01:24:50;;;;;;;;;1.00;1.00;;;;;5.85;88.39;100407.31;5119713;28;8824;-57
2023/12/27 01:27:17;;;;;;;;;3.00;3.00;;;;;5.77;88.53;100405.03;5119792;28;8930;-59
2023/12/27 01:29:45;;;;;;;;;2.60;1.00;;;;;5.68;88.59;100405.50;5104894;28;8890;-57
2023/12/27 01:32:13;;;;;;;;;1.75;1.50;;;;;5.61;88.65;100405.94;5078504;28;8858;-58
2023/12/27 01:34:41;;;;;;;;;3.00;0.25;;;;;5.54;88.80;100399.25;5078917;28;8840;-57
2023/12/27 01:37:11;;;;;;;;;1.00;1.00;;;;;5.47;88.83;100397.88;5079109;28;8832;-57
2023/12/27 01:39:39;;;;;;;;;1.00;1.00;;;;;5.41;88.89;100398.19;5078887;28;8850;-57
2023/12/27 01:42:07;;;;;;;;;1.00;1.00;;;;;5.34;88.93;100397.66;5078626;28;8827;-56
2023/12/27 01:44:35;;;;;;;;;0.00;0.00;;;;;5.29;88.92;100401.44;5079239;28;8867;-56
2023/12/27 01:47:02;;;;;;;;;1.50;1.50;;;;;5.22;89.09;100392.97;5079624;28;8836;-57
2023/12/27 01:49:30;;;;;;;;;3.00;1.50;;;;;5.15;89.19;100391.56;5078836;28;8828;-57
2023/12/27 01:51:58;;;;;;;;;3.80;3.80;;;;;5.10;88.98;100395.38;5078429;28;8828;-59
2023/12/27 01:54:27;;;;;;;;;3.00;3.00;;;;;5.03;89.44;100408.00;5078526;28;8960;-57
2023/12/27 01:56:55;;;;;;;;;5.60;5.60;;;;;4.99;89.36;100405.59;5078494;28;8917;-57
2023/12/27 01:59:24;;;;;;;;;3.00;3.00;;;;;4.94;89.28;100407.63;5078501;28;8913;-59
2023/12/27 02:01:51;;;;;;;;;1.40;1.40;;;;;4.90;89.63;100406.94;5078616;28;8921;-57
2023/12/27 02:04:19;;;;;;;;;3.20;3.00;;;;;4.87;89.63;100414.97;5079053;28;8846;-59
2023/12/27 02:06:47;;;;;;;;;4.00;3.20;;;;;4.87;89.66;100412.34;5092695;28;9561;-59
2023/12/27 02:09:15;;;;;;;;;2.20;2.20;;;;;4.86;89.59;100412.44;5098361;28;8822;-58
2023/12/27 02:11:42;;;;;;;;;1.00;1.00;;;;;4.85;89.98;100402.78;5098193;28;8913;-57
2023/12/27 02:14:10;;;;;;;;;2.60;2.60;;;;;4.84;89.35;100412.50;5097631;28;8830;-57
2023/12/27 02:16:38;;;;;;;;;3.40;3.40;;;;;4.82;89.79;100413.50;5097588;28;8840;-57
2023/12/27 02:19:06;;;;;;;;;3.20;3.20;;;;;4.79;89.24;100417.13;5098393;28;8840;-57
2023/12/27 02:21:34;;;;;;;;;1.80;1.40;;;;;4.77;89.70;100410.22;5097473;28;9483;-57
2023/12/27 02:24:02;;;;;;;;;2.20;1.00;;;;;4.70;89.83;100404.41;5097465;28;8822;-59
2023/12/27 02:26:30;;;;;;;;;4.00;1.40;;;;;4.64;89.65;100409.13;5096850;28;8940;-58
2023/12/27 02:28:58;;;;;;;;;2.60;0.80;;;;;4.57;89.78;100415.63;5098374;28;8818;-58
2023/12/27 02:31:26;;;;;;;;;0.20;0.00;;;;;4.51;89.71;100408.00;5097574;28;8837;-56
2023/12/27 02:33:54;;;;;;;;;1.00;1.00;;;;;4.49;90.12;100404.59;5097567;28;8895;-57
2023/12/27 02:36:22;;;;;;;;;3.00;1.00;;;;;4.48;89.45;100401.09;5097770;28;8822;-57
2023/12/27 02:38:49;;;;;;;;;3.40;1.80;;;;;4.48;90.23;100403.72;5097731;28;8895;-57
2023/12/27 02:41:17;;;;;;;;;1.80;1.80;;;;;4.49;90.27;100400.16;5097290;28;8960;-57
2023/12/27 02:43:45;;;;;;;;;2.20;2.20;;;;;4.49;90.28;100394.03;5100330;28;8841;-56
2023/12/27 02:46:13;;;;;;;;;1.80;1.80;;;;;4.50;90.07;100393.94;5111158;28;8860;-57
2023/12/27 02:48:40;;;;;;;;;0.00;0.00;;;;;4.52;89.98;100383.34;5116473;28;8880;-57
2023/12/27 02:51:08;;;;;;;;;1.00;1.00;;;;;4.54;90.28;100389.38;5097563;28;8833;-59
2023/12/27 02:53:36;;;;;;;;;3.00;3.00;;;;;4.56;90.28;100385.75;5097224;28;8845;-57
2023/12/27 02:56:04;;;;;;;;;2.20;2.20;;;;;4.59;90.30;100393.53;5082420;28;8827;-59
2023/12/27 02:58:31;;;;;;;;;2.60;1.00;;;;;4.61;90.21;100386.41;5077482;28;8820;-57
2023/12/27 03:00:59;;;;;;;;;3.80;3.80;;;;;4.65;90.41;100376.56;5081432;28;8832;-57
2023/12/27 03:03:27;;;;;;;;;2.00;1.80;;;;;4.66;90.13;100373.84;5117708;28;8828;-60
2023/12/27 03:05:55;;;;;;;;;3.00;3.00;;;;;4.70;90.33;100366.63;5117981;28;8827;-60
2023/12/27 03:08:23;;;;;;;;;3.40;2.20;;;;;4.75;90.05;100373.41;5117659;28;9583;-57
2023/12/27 03:10:49;;;;;;;;;1.40;1.00;;;;;4.77;89.64;100373.28;5118045;28;8804;-57
2023/12/27 03:13:17;;;;;;;;;1.80;1.40;;;;;4.80;89.93;100365.25;5083267;28;8844;-57
2023/12/27 03:15:45;;;;;;;;;3.20;1.00;;;;;4.81;89.58;100364.31;5077030;28;8854;-58
2023/12/27 03:18:12;;;;;;;;;5.60;4.00;;;;;4.84;90.00;100358.88;5076657;28;8828;-57
2023/12/27 03:20:40;;;;;;;;;1.00;1.00;;;;;4.85;89.53;100355.31;5076827;28;8823;-57
2023/12/27 03:23:08;;;;;;;;;5.20;4.40;;;;;4.85;89.88;100358.81;5076680;28;8832;-57
2023/12/27 03:25:36;;;;;;;;;4.00;3.00;;;;;4.84;89.72;100359.75;5076719;28;8937;-57
2023/12/27 03:28:04;;;;;;;;;6.00;6.00;;;;;4.83;89.65;100357.19;5076767;28;8816;-57
2023/12/27 03:30:31;;;;;;;;;6.00;5.20;;;;;4.83;89.49;100351.91;5077351;28;8938;-58
2023/12/27 03:33:00;;;;;;;;;6.00;6.00;;;;;4.83;89.49;100339.56;5076707;28;9579;-57
2023/12/27 03:35:28;;;;;;;;;5.20;5.20;;;;;4.83;89.28;100339.56;5076508;28;8855;-58
2023/12/27 03:37:55;;;;;;;;;3.20;3.20;;;;;4.84;89.73;100349.19;5082029;28;8852;-57
2023/12/27 03:40:24;;;;;;;;;6.60;6.20;;;;;4.83;89.82;100342.22;5097176;28;8846;-59
2023/12/27 03:42:51;;;;;;;;;10.20;9.80;;;;;4.84;89.92;100345.69;5096367;28;8810;-57
2023/12/27 03:45:19;;;;;;;;;7.40;6.40;;;;;4.82;89.88;100352.84;5095684;28;8810;-57
2023/12/27 03:47:47;;;;;;;;;7.40;7.40;;;;;4.82;89.68;100344.91;5095939;28;8826;-56
2023/12/27 03:50:15;;;;;;;;;8.20;7.00;;;;;4.80;89.23;100337.06;5096091;28;8817;-56
2023/12/27 03:52:43;;;;;;;;;1.00;1.00;;;;;4.79;89.48;100334.53;5094481;28;8821;-58
2023/12/27 03:55:11;;;;;;;;;4.00;3.40;;;;;4.74;89.91;100326.84;5096103;28;8938;-57
2023/12/27 03:57:38;;;;;;;;;4.00;4.00;;;;;4.71;89.08;100326.16;5096181;28;8844;-57
2023/12/27 04:00:06;;;;;;;;;0.00;0.00;;;;;4.63;89.93;100321.25;5095399;28;8841;-57
2023/12/27 04:02:33;;;;;;;;;3.60;3.60;;;;;4.59;89.48;100326.75;5093071;28;8859;-57
2023/12/27 04:05:00;;;;;;;;;4.00;4.00;;;;;4.51;89.65;100328.91;5095904;28;8911;-56
2023/12/27 04:07:29;;;;;;;;;3.60;3.00;;;;;4.41;89.47;100317.94;5095825;28;8937;-56
2023/12/27 04:09:57;;;;;;;;;1.40;1.40;;;;;4.35;89.37;100317.41;5095918;28;8833;-57
2023/12/27 04:12:24;;;;;;;;;3.80;3.00;;;;;4.27;89.95;100309.84;5096305;28;8833;-57
2023/12/27 04:14:52;;;;;;;;;2.00;2.00;;;;;4.22;89.56;100317.16;5095386;28;8919;-58
2023/12/27 04:17:20;;;;;;;;;4.40;3.80;;;;;4.19;90.21;100316.44;5095750;28;8847;-58
2023/12/27 04:19:47;;;;;;;;;3.00;3.00;;;;;4.16;89.80;100314.78;5090712;28;8870;-57
2023/12/27 04:22:15;;;;;;;;;4.40;4.00;;;;;4.16;90.39;100319.19;5109382;28;8823;-57
2023/12/27 04:24:43;;;;;;;;;4.00;4.00;;;;;4.12;90.03;100320.28;5115532;28;9493;-57
2023/12/27 04:27:11;;;;;;;;;3.80;3.80;;;;;4.12;89.73;100317.66;5095343;28;8826;-58
2023/12/27 04:29:38;;;;;;;;;4.80;4.80;;;;;4.09;90.59;100325.69;5096889;28;8810;-57
2023/12/27 04:32:06;;;;;;;;;6.20;4.00;;;;;4.08;90.21;100329.25;5101404;28;8818;-56
2023/12/27 04:34:34;;;;;;;;;6.00;5.20;;;;;4.07;90.41;100322.28;5101844;28;8841;-56
2023/12/27 04:37:02;;;;;;;;;4.00;3.20;;;;;4.05;90.67;100332.88;5099319;28;8820;-56
2023/12/27 04:39:31;;;;;;;;;3.00;3.00;;;;;4.04;90.06;100331.16;5123257;28;8824;-57
2023/12/27 04:41:59;;;;;;;;;3.00;3.00;;;;;4.02;90.25;100335.66;5122792;28;8828;-59
2023/12/27 04:44:27;;;;;;;;;3.40;3.00;;;;;4.03;90.17;100339.16;5123604;28;8852;-58
2023/12/27 04:46:55;;;;;;;;;3.40;3.20;;;;;4.03;90.81;100332.09;5122903;28;8819;-57
2023/12/27 04:49:22;;;;;;;;;6.20;5.60;;;;;4.05;90.52;100326.78;5122647;28;8824;-57
2023/12/27 04:51:51;;;;;;;;;3.80;3.40;;;;;4.08;90.35;100323.97;5121620;28;8816;-56
2023/12/27 04:54:19;;;;;;;;;6.00;5.60;;;;;4.12;90.55;100312.38;5103426;28;8828;-57
2023/12/27 04:56:47;;;;;;;;;4.00;4.00;;;;;4.13;90.04;100306.19;5081480;28;8824;-59
2023/12/27 04:59:14;;;;;;;;;5.40;4.20;;;;;4.15;89.88;100309.59;5081958;28;8824;-56
2023/12/27 05:01:42;;;;;;;;;1.00;1.00;;;;;4.17;90.64;100299.81;5081785;28;8856;-56
2023/12/27 05:04:10;;;;;;;;;5.20;3.80;;;;;4.19;90.58;100295.34;5081832;28;8820;-57
2023/12/27 05:06:38;;;;;;;;;3.60;3.00;;;;;4.21;89.83;100281.19;5081389;28;8958;-56
2023/12/27 05:09:05;;;;;;;;;4.40;3.60;;;;;4.24;90.57;100267.84;5081660;28;8885;-56
2023/12/27 05:11:33;;;;;;;;;6.40;6.00;;;;;4.31;90.24;100278.94;5082300;28;8961;-56
2023/12/27 05:14:01;;;;;;;;;3.80;3.80;;;;;4.37;90.03;100270.72;5087698;28;8822;-58
2023/12/27 05:16:28;;;;;;;;;6.40;6.40;;;;;4.40;90.61;100263.53;5102205;28;8845;-56
2023/12/27 05:18:56;;;;;;;;;6.80;6.80;;;;;4.42;90.24;100266.94;5102803;28;8822;-57
2023/12/27 05:21:24;;;;;;;;;3.20;3.20;;;;;4.44;89.76;100270.38;5098889;28;8820;-57
2023/12/27 05:23:52;;;;;;;;;8.80;6.00;;;;;4.45;90.23;100272.06;5100750;28;9479;-57
2023/12/27 05:26:20;;;;;;;;;3.20;3.20;;;;;4.45;89.93;100271.19;5101565;28;8960;-58
2023/12/27 05:28:47;;;;;;;;;6.40;4.00;;;;;4.47;89.73;100270.19;5101203;28;8830;-56
2023/12/27 05:31:15;;;;;;;;;6.40;6.40;;;;;4.49;89.74;100267.50;5100563;28;8809;-57
2023/12/27 05:33:43;;;;;;;;;6.00;6.00;;;;;4.51;89.54;100260.34;5101148;28;8830;-58
2023/12/27 05:36:11;;;;;;;;;6.60;6.00;;;;;4.51;89.75;100263.00;5101341;28;8830;-56
2023/12/27 05:38:40;;;;;;;;;7.40;6.20;;;;;4.52;90.10;100262.06;5101151;28;8822;-59
2023/12/27 05:41:08;;;;;;;;;3.40;3.40;;;;;4.53;89.57;100256.72;5100894;28;8962;-57
2023/12/27 05:43:35;;;;;;;;;7.00;5.80;;;;;4.55;89.85;100256.63;5097306;28;8835;-58
2023/12/27 05:46:03;;;;;;;;;4.40;3.80;;;;;4.56;89.86;100250.44;5098163;28;8818;-57
2023/12/27 05:48:32;;;;;;;;;3.60;3.20;;;;;4.58;89.92;100259.13;5099440;28;8814;-56
2023/12/27 05:51:00;;;;;;;;;2.60;2.20;;;;;4.60;89.93;100265.16;5098267;28;8841;-56
2023/12/27 05:53:28;;;;;;;;;7.40;6.20;;;;;4.62;89.75;100266.78;5098309;28;8815;-56
2023/12/27 05:55:56;;;;;;;;;4.00;3.20;;;;;4.64;89.76;100261.44;5083948;28;8867;-58
2023/12/27 05:58:23;;;;;;;;;5.20;3.20;;;;;4.66;89.48;100265.72;5100009;28;9475;-57
2023/12/27 06:00:51;;;;;;;;;4.40;4.40;;;;;4.69;89.28;100259.41;5105993;28;8824;-57
2023/12/27 06:03:22;;;;;;;;;9.40;7.00;;;;;4.72;90.19;100256.66;5080754;28;8824;-56
2023/12/27 06:05:50;;;;;;;;;4.40;3.60;;;;;4.74;89.58;100255.63;5104655;28;9557;-58
2023/12/27 06:08:20;;;;;;;;;4.40;4.00;;;;;4.77;89.63;100257.25;5119201;28;8812;-59
2023/12/27 06:10:49;;;;;;;;;1.40;1.00;;;;;4.79;89.56;100245.69;5118796;28;8951;-57
2023/12/27 06:13:18;;;;;;;;;3.00;3.00;;;;;4.81;89.68;100251.75;5118873;28;8852;-58
2023/12/27 06:15:46;;;;;;;;;6.20;4.00;;;;;4.83;89.54;100247.25;5118665;28;8888;-57
2023/12/27 06:18:13;;;;;;;;;3.20;3.00;;;;;4.86;89.54;100254.16;5103176;28;8845;-57
2023/12/27 06:20:41;;;;;;;;;2.60;2.60;;;;;4.87;89.81;100243.50;5098108;28;8833;-57
2023/12/27 06:23:09;;;;;;;;;0.60;0.00;;;;;4.88;89.62;100249.66;5097491;28;8810;-58
2023/12/27 06:25:37;;;;;;;;;5.60;4.00;;;;;4.89;89.34;100246.06;5097864;28;8828;-57
2023/12/27 06:28:05;;;;;;;;;3.80;3.40;;;;;4.91;89.32;100238.91;5096639;28;8806;-57
2023/12/27 06:30:33;;;;;;;;;3.40;3.00;;;;;4.92;89.31;100233.56;5096981;28;8834;-56
2023/12/27 06:33:01;;;;;;;;;3.20;3.20;;;;;4.97;89.45;100238.59;5096438;28;8830;-59
2023/12/27 06:35:29;;;;;;;;;0.00;0.00;;;;;5.00;89.08;100209.41;5095239;28;8834;-58
2023/12/27 06:37:57;;;;;;;;;3.80;3.60;;;;;5.03;89.57;100217.19;5076401;28;8852;-58
2023/12/27 06:40:25;;;;;;;;;6.00;3.60;;;;;5.04;88.96;100218.88;5076915;28;8958;-57
2023/12/27 06:42:52;;;;;;;;;5.20;4.00;;;;;5.06;89.66;100222.28;5076360;28;8870;-57
2023/12/27 06:45:20;;;;;;;;;6.00;6.00;;;;;5.08;89.62;100220.44;5076416;28;8824;-59
2023/12/27 06:47:49;;;;;;;;;2.00;0.00;;;;;5.10;89.24;100218.56;5077030;28;8840;-57
2023/12/27 06:50:17;;;;;;;;;4.60;4.60;;;;;5.11;89.25;100218.50;5077411;28;8846;-56
2023/12/27 06:52:44;;;;;;;;;6.00;4.80;;;;;5.13;89.18;100199.91;5077691;28;8828;-58
2023/12/27 06:55:12;;;;;;;;;3.80;3.80;;;;;5.15;89.22;100209.47;5094961;28;8806;-59
2023/12/27 06:57:40;;;;;;;;;4.00;4.00;;;;;5.15;88.92;100203.31;5097360;28;8818;-57
2023/12/27 07:00:08;;;;;;;;;5.20;5.20;;;;;5.16;89.31;100207.69;5097210;28;8944;-57
2023/12/27 07:02:38;;;;;;;;;4.00;4.00;;;;;5.17;89.16;100198.84;5096905;28;8869;-57
2023/12/27 07:05:06;;;;;;;;;5.20;4.80;;;;;5.20;89.26;100194.25;5105690;28;8836;-57
2023/12/27 07:07:35;;;;;;;;;3.20;2.80;;;;;5.23;89.44;100194.06;5116958;28;8912;-58
2023/12/27 07:10:04;;;;;;;;;6.00;6.00;;;;;5.25;89.48;100180.78;5095965;28;8830;-59
2023/12/27 07:12:31;;;;;;;;;6.00;4.40;;;;;5.28;89.20;100177.97;5076525;28;9498;-57
2023/12/27 07:14:59;;;;;;;;;3.00;3.00;;;;;5.30;89.26;100176.09;5076398;28;8804;-59
2023/12/27 07:17:27;;;;;;;;;5.60;5.60;;;;;5.34;89.01;100175.88;5076504;28;8862;-59
2023/12/27 07:19:55;;;;;;;;;5.20;4.60;;;;;5.36;88.93;100174.00;5076804;28;8820;-57
2023/12/27 07:22:22;;;;;;;;;3.80;3.00;;;;;5.39;89.15;100170.34;5107153;28;8809;-57
2023/12/27 07:24:50;;;;;;;;;5.80;4.80;;;;;5.42;89.21;100167.53;5116721;28;8836;-57
2023/12/27 07:27:18;;;;;;;;;1.40;1.00;;;;;5.48;88.77;100156.63;5098926;28;8921;-56
2023/12/27 07:29:46;;;;;;;;;3.00;3.00;;;;;5.53;88.68;100157.22;5076149;28;8827;-58
2023/12/27 07:32:14;;;;;;;;;1.00;1.00;;;;;5.58;88.83;100147.25;5076008;28;8850;-57
2023/12/27 07:34:42;;;;;;;;;8.20;6.20;;;;;5.61;88.78;100131.25;5076312;28;8824;-59
2023/12/27 07:37:09;;;;;;;;;4.80;3.40;;;;;5.64;88.70;100121.34;5075082;28;8832;-56
2023/12/27 07:39:37;;;;;;;;;6.00;4.40;;;;;5.71;88.73;100119.19;5075078;28;8846;-56
2023/12/27 07:42:05;;;;;;;;;4.00;4.00;;;;;5.73;88.61;100119.97;5074665;28;8866;-57
2023/12/27 07:44:33;;;;;;;;;4.80;4.00;;;;;5.75;88.68;100112.78;5076227;28;8844;-57
2023/12/27 07:47:00;;;;;;;;;6.60;6.40;;;;;5.77;88.96;100129.44;5075764;28;8832;-59
2023/12/27 07:49:28;;;;;;;;;6.00;4.00;;;;;5.80;88.97;100122.22;5075965;28;9498;-59
2023/12/27 07:51:56;;;;;;;;;4.00;4.00;;;;;5.81;88.66;100115.13;5075771;28;8828;-59
2023/12/27 07:54:24;;;;;;;;;6.60;6.00;;;;;5.83;88.50;100111.44;5076175;28;8840;-57
2023/12/27 07:56:52;;;;;;;;;7.80;7.40;;;;;5.84;88.52;100109.69;5075560;28;8836;-56
2023/12/27 07:59:20;;;;;;;;;6.20;6.00;;;;;5.86;88.31;100113.91;5094683;28;8822;-57
2023/12/27 08:01:47;;;;;;;;;6.80;6.40;;;;;5.89;88.74;100120.81;5095030;28;8850;-56
2023/12/27 08:04:15;;;;;;;;;3.00;1.00;;;;;5.91;88.20;100127.72;5094572;28;8822;-57
2023/12/27 08:06:45;;;;;;;;;4.80;3.40;;;;;5.96;88.18;100120.38;5094489;28;8806;-57
2023/12/27 08:09:13;;;;;;;;;3.00;3.00;;;;;6.05;88.33;100124.25;5094890;28;8824;-58
2023/12/27 08:11:41;;;;;;;;;0.50;0.00;;;;;6.15;88.72;100117.50;5096664;28;8829;-57
2023/12/27 08:14:08;;;;;;;;;2.00;2.00;;;;;6.28;88.71;100115.81;5094977;28;8838;-56
2023/12/27 08:16:37;;;;;;;;;1.00;1.00;;;;;6.42;87.81;100113.22;5095606;28;8932;-57
2023/12/27 08:19:04;;;;;;;;;2.00;1.00;;;;;6.55;87.40;100111.53;5094939;28;8814;-56
2023/12/27 08:21:32;;;;;;;;;2.00;1.50;;;;;6.66;87.52;100109.94;5095065;28;8826;-56
2023/12/27 08:24:00;;;;;;;;;3.00;3.00;;;;;6.77;87.67;100096.91;5094645;28;8834;-56
2023/12/27 08:26:28;;;;;;;;;1.00;1.00;;;;;6.90;87.64;100097.84;5094076;28;8814;-56
2023/12/27 08:28:56;;;;;;;;;0.75;0.75;;;;;7.04;87.29;100100.47;5092645;28;8826;-59
2023/12/27 08:31:23;;;;;;;;;2.00;1.50;;;;;7.13;87.19;100089.31;5103099;28;8955;-57
2023/12/27 08:33:52;;;;;;;;;3.00;2.50;;;;;7.27;87.48;100099.03;5115989;28;8824;-57
2023/12/27 08:36:19;;;;;;;;;0.50;0.50;;;;;7.37;86.72;100087.78;5102691;28;8858;-57
2023/12/27 08:38:47;;;;;;;;;1.00;1.00;;;;;7.53;86.72;100082.31;5115902;28;8831;-59
2023/12/27 08:41:15;;;;;;;;;0.00;0.00;;;;;7.67;86.67;100074.31;5116134;28;8819;-57
2023/12/27 08:43:43;;;;;;;;;0.00;0.00;;;;;7.76;86.51;100075.41;5115642;28;8878;-58
2023/12/27 08:46:10;;;;;;;;;1.00;1.00;;;;;7.85;86.70;100069.47;5115873;28;9508;-56
2023/12/27 08:48:38;;;;;;;;;3.00;1.00;;;;;7.93;86.42;100069.84;5103000;28;8828;-58
2023/12/27 08:51:06;;;;;;;;;1.50;1.00;;;;;7.99;86.72;100068.59;5094643;28;8985;-59
2023/12/27 08:53:34;;;;;;;;;1.00;1.00;;;;;8.06;86.46;100070.69;5074519;28;8850;-56
2023/12/27 08:56:02;;;;;;;;;0.00;0.00;;;;;8.10;86.35;100074.88;5074113;28;8836;-56
2023/12/27 08:58:31;;;;;;;;;1.50;1.00;;;;;8.16;86.08;100063.84;5074840;28;8824;-57
2023/12/27 09:01:00;;;;;;;;;1.00;1.00;;;;;8.20;86.48;100068.00;5074929;28;8840;-56
2023/12/27 09:03:28;;;;;;;;;0.50;0.00;;;;;8.26;86.77;100064.06;5074330;28;8974;-57
2023/12/27 09:05:55;;;;;;;;;3.00;3.00;;;;;8.31;86.36;100060.19;5074755;28;8846;-56
2023/12/27 09:08:23;;;;;;;;;1.00;1.00;;;;;8.36;86.00;100050.09;5075645;28;8828;-56
2023/12/27 09:10:51;;;;;;;;;1.50;1.00;;;;;8.42;86.09;100060.28;5075057;28;8840;-56
2023/12/27 09:13:19;;;;;;;;;0.00;0.00;;;;;8.47;86.25;100058.16;5075222;28;8929;-56
2023/12/27 09:15:46;;;;;;;;;1.00;1.00;;;;;8.51;86.24;100059.63;5074344;28;8832;-56
2023/12/27 09:18:16;;;;;;;;;0.75;0.75;;;;;8.57;86.01;100058.34;5077039;28;8951;-56
2023/12/27 09:20:44;;;;;;;;;1.00;1.00;;;;;8.60;85.96;100064.28;5078393;28;8850;-58
2023/12/27 09:23:11;;;;;;;;;1.00;0.75;;;;;8.62;86.25;100062.41;5078380;28;8843;-58
2023/12/27 09:25:39;;;;;;;;;0.00;0.00;;;;;8.62;86.22;100067.72;5093784;28;9518;-57
2023/12/27 09:28:07;;;;;;;;;1.00;1.00;;;;;8.61;86.18;100075.78;5098590;28;8864;-57
2023/12/27 09:30:36;;;;;;;;;1.00;0.50;;;;;8.60;86.15;100068.78;5097976;28;9517;-58
2023/12/27 09:33:04;;;;;;;;;0.50;0.00;;;;;8.60;86.45;100071.44;5096779;28;8895;-57
2023/12/27 09:35:32;;;;;;;;;1.00;1.00;;;;;8.59;86.14;100067.91;5098334;28;8830;-59
2023/12/27 09:38:00;;;;;;;;;3.00;3.00;;;;;8.60;86.32;100066.94;5098434;28;8861;-57
2023/12/27 09:40:28;;;;;;;;;1.00;1.00;;;;;8.62;86.44;100066.84;5098595;28;8956;-58
2023/12/27 09:42:57;;;;;;;;;0.50;0.50;;;;;8.65;86.71;100064.00;5098435;28;8846;-57
2023/12/27 09:45:25;;;;;;;;;1.50;1.00;;;;;8.71;86.42;100064.41;5101700;28;8810;-57
2023/12/27 09:47:53;;;;;;;;;0.00;0.00;;;;;8.77;86.40;100052.50;5096610;28;9004;-57
2023/12/27 09:50:21;;;;;;;;;1.00;1.00;;;;;8.83;86.32;100044.94;5101245;28;8937;-57
2023/12/27 09:52:49;;;;;;;;;0.00;0.00;;;;;8.89;86.36;100028.59;5101099;28;8940;-56
2023/12/27 09:55:17;;;;;;;;;0.75;0.25;;;;;8.98;86.45;100016.47;5116044;28;8878;-56
2023/12/27 09:57:45;;;;;;;;;5.00;5.00;;;;;9.08;86.06;100013.03;5111467;28;8826;-58
2023/12/27 10:00:13;;;;;;;;;1.00;1.00;;;;;9.22;86.20;100015.56;5089287;28;8832;-57
2023/12/27 10:02:41;;;;;;;;;3.25;2.00;;;;;9.35;85.93;100023.47;5077346;28;8925;-57
2023/12/27 10:05:09;;;;;;;;;0.75;0.75;;;;;9.46;85.72;100020.84;5076225;28;8961;-56
2023/12/27 10:07:40;;;;;;;;;0.00;0.00;;;;;9.58;85.47;100014.66;5076682;28;8917;-57
2023/12/27 10:10:08;;;;;;;;;2.00;2.00;;;;;9.68;85.06;100012.97;5091165;28;8828;-59
2023/12/27 10:12:51;;;;;;;;;1.00;1.00;;;;;9.76;84.79;100016.78;5116856;28;8874;-59
2023/12/27 10:15:19;;;;;;;;;1.00;1.00;;;;;9.79;84.78;100011.22;5117680;28;8908;-56
2023/12/27 10:17:48;;;;;;;;;0.00;0.00;;;;;9.77;85.05;100006.97;5090929;28;8882;-56
2023/12/27 10:20:16;;;;;;;;;0.00;0.00;;;;;9.75;84.83;99992.94;5077461;28;8841;-56
2023/12/27 10:22:44;;;;;;;;;0.25;0.25;;;;;9.72;85.67;99996.69;5077138;28;8839;-56
2023/12/27 10:25:12;;;;;;;;;0.00;0.00;;;;;9.70;85.07;99989.78;5077649;28;8828;-57
2023/12/27 10:27:39;;;;;;;;;0.00;0.00;;;;;9.69;85.10;99994.25;5076785;28;8844;-58
2023/12/27 10:30:08;;;;;;;;;0.00;0.00;;;;;9.67;85.27;99984.72;5077312;28;8828;-57
2023/12/27 10:32:36;;;;;;;;;1.00;1.00;;;;;9.65;85.31;99979.50;5077133;28;8854;-57
2023/12/27 10:35:04;;;;;;;;;0.00;0.00;;;;;9.64;85.40;99976.97;5077622;28;8913;-57
2023/12/27 10:37:32;;;;;;;;;0.75;0.50;;;;;9.62;85.57;99974.41;5076684;28;8828;-56
2023/12/27 10:40:00;;;;;;;;;0.00;0.00;;;;;9.63;85.77;99986.75;5077357;28;8824;-57
2023/12/27 10:42:28;;;;;;;;;0.00;0.00;;;;;9.64;85.23;99975.16;5077128;28;8958;-57
2023/12/27 10:44:56;;;;;;;;;0.00;0.00;;;;;9.65;85.43;99958.22;5076476;28;8985;-59
2023/12/27 10:47:24;;;;;;;;;0.50;0.00;;;;;9.65;85.49;99938.78;5090188;28;8818;-58
2023/12/27 10:49:52;;;;;;;;;0.00;0.00;;;;;9.65;85.69;99939.63;5096556;28;8842;-59
2023/12/27 10:52:20;;;;;;;;;0.00;0.00;;;;;9.65;85.52;99942.28;5094762;28;9826;-57
2023/12/27 10:54:48;;;;;;;;;0.00;0.00;;;;;9.65;85.54;99952.91;5096328;28;8869;-56
2023/12/27 10:57:16;;;;;;;;;0.00;0.00;;;;;9.66;85.48;99956.44;5093836;28;8976;-56
2023/12/27 10:59:44;;;;;;;;;0.00;0.00;;;;;9.66;85.40;99951.94;5098635;28;8827;-57
2023/12/27 11:02:12;;;;;;;;;0.75;0.75;;;;;9.66;85.33;99951.94;5110605;28;9584;-57
2023/12/27 11:04:40;;;;;;;;;0.50;0.50;;;;;9.64;85.28;99951.22;5115787;28;8828;-58
2023/12/27 11:07:09;;;;;;;;;0.75;0.75;;;;;9.63;85.94;99944.22;5097910;28;8904;-56
2023/12/27 11:09:37;;;;;;;;;0.00;0.00;;;;;9.60;86.17;99928.50;5095015;28;8895;-57
2023/12/27 11:12:06;;;;;;;;;0.00;0.00;;;;;9.57;85.58;99934.03;5096002;28;8840;-60
2023/12/27 11:14:34;;;;;;;;;0.50;0.50;;;;;9.54;85.69;99930.75;5095573;28;9880;-57
2023/12/27 11:17:03;;;;;;;;;0.00;0.00;;;;;9.53;86.25;99940.56;5095183;28;8834;-57
2023/12/27 11:19:32;;;;;;;;;1.00;1.00;;;;;9.52;86.20;99927.38;5114064;28;8855;-57
2023/12/27 11:22:01;;;;;;;;;1.00;1.00;;;;;9.52;86.13;99930.03;5115282;28;8843;-59
2023/12/27 11:24:29;;;;;;;;;1.00;1.00;;;;;9.51;85.93;99915.91;5111112;28;8844;-56
2023/12/27 11:26:56;;;;;;;;;1.00;1.00;;;;;9.51;86.26;99923.03;5074816;28;8889;-59
2023/12/27 11:29:24;;;;;;;;;1.00;1.00;;;;;9.50;85.96;99914.19;5075158;28;8832;-59
2023/12/27 11:31:52;;;;;;;;;3.00;1.00;;;;;9.48;86.12;99916.13;5074279;28;8856;-55
2023/12/27 11:34:19;;;;;;;;;1.00;1.00;;;;;9.47;86.02;99917.09;5074576;28;9727;-57
2023/12/27 11:36:47;;;;;;;;;1.50;1.50;;;;;9.46;85.95;99915.41;5075032;28;8840;-56
2023/12/27 11:39:15;;;;;;;;;1.25;1.25;;;;;9.45;85.90;99899.56;5074653;28;8851;-56
2023/12/27 11:41:43;;;;;;;;;1.00;1.00;;;;;9.45;86.02;99905.75;5074121;28;8835;-56
2023/12/27 11:44:11;;;;;;;;;1.00;1.00;;;;;9.44;85.89;99884.59;5074813;28;9699;-56
2023/12/27 11:46:39;;;;;;;;;0.75;0.50;;;;;9.45;86.20;99888.94;5074192;28;8836;-56